sensor_id;sensor_type;location;lat;lon;timestamp;P1;durP1;ratioP1;P2;durP2;ratioP2
46391;SDS011;32098;49.448;7.904;2022-10-29T00:00:52;15.10;;;6.53;;
46391;SDS011;32098;49.448;7.904;2022-10-29T00:03:21;12.17;;;6.13;;
46391;SDS011;32098;49.448;7.904;2022-10-29T00:05:55;14.57;;;6.07;;
46391;SDS011;32098;49.448;7.904;2022-10-29T00:08:32;14.97;;;6.23;;
46391;SDS011;32098;49.448;7.904;2022-10-29T00:11:04;11.50;;;5.87;;
46391;SDS011;32098;49.448;7.904;2022-10-29T00:13:39;16.00;;;6.28;;
46391;SDS011;32098;49.448;7.904;2022-10-29T00:16:14;13.70;;;5.87;;
46391;SDS011;32098;49.448;7.904;2022-10-29T00:18:43;12.10;;;5.80;;
46391;SDS011;32098;49.448;7.904;2022-10-29T00:21:11;11.87;;;6.27;;
46391;SDS011;32098;49.448;7.904;2022-10-29T00:23:45;16.42;;;6.95;;
46391;SDS011;32098;49.448;7.904;2022-10-29T00:26:12;18.40;;;6.38;;
46391;SDS011;32098;49.448;7.904;2022-10-29T00:28:39;18.73;;;6.22;;
46391;SDS011;32098;49.448;7.904;2022-10-29T00:31:07;13.13;;;6.47;;
46391;SDS011;32098;49.448;7.904;2022-10-29T00:33:36;17.87;;;6.50;;
46391;SDS011;32098;49.448;7.904;2022-10-29T00:36:07;15.67;;;6.33;;
46391;SDS011;32098;49.448;7.904;2022-10-29T00:38:38;17.20;;;7.27;;
46391;SDS011;32098;49.448;7.904;2022-10-29T00:41:05;12.50;;;6.00;;
46391;SDS011;32098;49.448;7.904;2022-10-29T00:43:33;11.87;;;6.57;;
46391;SDS011;32098;49.448;7.904;2022-10-29T00:46:02;16.20;;;5.83;;
46391;SDS011;32098;49.448;7.904;2022-10-29T00:48:33;11.10;;;6.27;;
46391;SDS011;32098;49.448;7.904;2022-10-29T00:51:03;15.37;;;6.77;;
46391;SDS011;32098;49.448;7.904;2022-10-29T00:53:32;13.33;;;6.77;;
46391;SDS011;32098;49.448;7.904;2022-10-29T00:56:03;13.97;;;6.20;;
46391;SDS011;32098;49.448;7.904;2022-10-29T00:58:30;10.50;;;6.03;;
46391;SDS011;32098;49.448;7.904;2022-10-29T01:00:57;14.80;;;7.53;;
46391;SDS011;32098;49.448;7.904;2022-10-29T01:03:24;19.23;;;8.33;;
46391;SDS011;32098;49.448;7.904;2022-10-29T01:05:51;19.47;;;7.60;;
46391;SDS011;32098;49.448;7.904;2022-10-29T01:08:19;14.27;;;6.60;;
46391;SDS011;32098;49.448;7.904;2022-10-29T01:16:49;19.70;;;6.80;;
46391;SDS011;32098;49.448;7.904;2022-10-29T01:19:45;15.80;;;6.67;;
46391;SDS011;32098;49.448;7.904;2022-10-29T01:28:02;19.13;;;6.70;;
46391;SDS011;32098;49.448;7.904;2022-10-29T01:36:29;17.23;;;6.43;;
46391;SDS011;32098;49.448;7.904;2022-10-29T01:39:20;14.43;;;6.77;;
46391;SDS011;32098;49.448;7.904;2022-10-29T01:42:01;15.87;;;6.77;;
46391;SDS011;32098;49.448;7.904;2022-10-29T01:44:37;16.93;;;6.60;;
46391;SDS011;32098;49.448;7.904;2022-10-29T01:47:13;15.13;;;6.20;;
46391;SDS011;32098;49.448;7.904;2022-10-29T01:49:44;12.80;;;6.43;;
46391;SDS011;32098;49.448;7.904;2022-10-29T01:52:16;11.70;;;6.37;;
46391;SDS011;32098;49.448;7.904;2022-10-29T01:54:47;11.00;;;6.10;;
46391;SDS011;32098;49.448;7.904;2022-10-29T02:00:05;12.90;;;6.73;;
46391;SDS011;32098;49.448;7.904;2022-10-29T02:08:51;13.90;;;7.57;;
46391;SDS011;32098;49.448;7.904;2022-10-29T02:11:48;15.83;;;6.97;;
46391;SDS011;32098;49.448;7.904;2022-10-29T02:14:25;17.10;;;6.57;;
46391;SDS011;32098;49.448;7.904;2022-10-29T02:17:00;16.20;;;7.30;;
46391;SDS011;32098;49.448;7.904;2022-10-29T02:19:28;11.40;;;6.50;;
46391;SDS011;32098;49.448;7.904;2022-10-29T02:21:56;17.43;;;6.60;;
46391;SDS011;32098;49.448;7.904;2022-10-29T02:24:22;13.33;;;6.20;;
46391;SDS011;32098;49.448;7.904;2022-10-29T02:26:50;15.37;;;6.93;;
46391;SDS011;32098;49.448;7.904;2022-10-29T02:29:17;14.47;;;6.80;;
46391;SDS011;32098;49.448;7.904;2022-10-29T02:31:44;15.80;;;7.37;;
46391;SDS011;32098;49.448;7.904;2022-10-29T02:34:11;11.40;;;6.23;;
46391;SDS011;32098;49.448;7.904;2022-10-29T02:36:37;11.90;;;6.67;;
46391;SDS011;32098;49.448;7.904;2022-10-29T02:39:04;10.60;;;6.60;;
46391;SDS011;32098;49.448;7.904;2022-10-29T02:41:30;16.43;;;7.23;;
46391;SDS011;32098;49.448;7.904;2022-10-29T02:43:57;12.80;;;6.60;;
46391;SDS011;32098;49.448;7.904;2022-10-29T02:46:23;12.37;;;6.17;;
46391;SDS011;32098;49.448;7.904;2022-10-29T02:48:50;12.30;;;6.10;;
46391;SDS011;32098;49.448;7.904;2022-10-29T02:51:17;14.43;;;6.30;;
46391;SDS011;32098;49.448;7.904;2022-10-29T02:53:43;14.40;;;6.83;;
46391;SDS011;32098;49.448;7.904;2022-10-29T02:56:10;15.43;;;6.20;;
46391;SDS011;32098;49.448;7.904;2022-10-29T02:58:36;14.47;;;6.93;;
46391;SDS011;32098;49.448;7.904;2022-10-29T03:01:03;15.47;;;6.80;;
46391;SDS011;32098;49.448;7.904;2022-10-29T03:03:30;16.53;;;6.23;;
46391;SDS011;32098;49.448;7.904;2022-10-29T03:05:57;11.33;;;6.43;;
46391;SDS011;32098;49.448;7.904;2022-10-29T03:08:23;14.88;;;6.72;;
46391;SDS011;32098;49.448;7.904;2022-10-29T03:10:50;12.50;;;6.90;;
46391;SDS011;32098;49.448;7.904;2022-10-29T03:13:16;11.37;;;6.57;;
46391;SDS011;32098;49.448;7.904;2022-10-29T03:15:43;15.83;;;6.43;;
46391;SDS011;32098;49.448;7.904;2022-10-29T03:18:11;12.27;;;6.30;;
46391;SDS011;32098;49.448;7.904;2022-10-29T03:20:38;14.47;;;5.93;;
46391;SDS011;32098;49.448;7.904;2022-10-29T03:23:04;18.70;;;6.77;;
46391;SDS011;32098;49.448;7.904;2022-10-29T03:25:30;12.40;;;6.47;;
46391;SDS011;32098;49.448;7.904;2022-10-29T03:27:57;15.23;;;5.97;;
46391;SDS011;32098;49.448;7.904;2022-10-29T03:30:24;13.17;;;6.40;;
46391;SDS011;32098;49.448;7.904;2022-10-29T03:32:51;9.27;;;5.50;;
46391;SDS011;32098;49.448;7.904;2022-10-29T03:35:17;12.07;;;6.37;;
46391;SDS011;32098;49.448;7.904;2022-10-29T03:37:44;12.43;;;6.27;;
46391;SDS011;32098;49.448;7.904;2022-10-29T03:40:14;14.73;;;6.13;;
46391;SDS011;32098;49.448;7.904;2022-10-29T03:42:41;13.80;;;7.00;;
46391;SDS011;32098;49.448;7.904;2022-10-29T03:45:08;14.27;;;6.73;;
46391;SDS011;32098;49.448;7.904;2022-10-29T03:47:35;13.97;;;6.23;;
46391;SDS011;32098;49.448;7.904;2022-10-29T03:50:02;11.23;;;6.60;;
46391;SDS011;32098;49.448;7.904;2022-10-29T03:52:29;13.83;;;6.90;;
46391;SDS011;32098;49.448;7.904;2022-10-29T03:54:55;15.23;;;7.07;;
46391;SDS011;32098;49.448;7.904;2022-10-29T03:57:22;14.47;;;7.20;;
46391;SDS011;32098;49.448;7.904;2022-10-29T03:59:48;11.83;;;6.43;;
46391;SDS011;32098;49.448;7.904;2022-10-29T04:02:18;16.67;;;6.10;;
46391;SDS011;32098;49.448;7.904;2022-10-29T04:04:45;14.43;;;7.13;;
46391;SDS011;32098;49.448;7.904;2022-10-29T04:07:11;13.13;;;6.50;;
46391;SDS011;32098;49.448;7.904;2022-10-29T04:09:38;12.37;;;6.80;;
46391;SDS011;32098;49.448;7.904;2022-10-29T04:12:05;15.67;;;6.50;;
46391;SDS011;32098;49.448;7.904;2022-10-29T04:14:32;8.87;;;5.40;;
46391;SDS011;32098;49.448;7.904;2022-10-29T04:16:58;16.73;;;6.83;;
46391;SDS011;32098;49.448;7.904;2022-10-29T04:19:25;14.60;;;6.43;;
46391;SDS011;32098;49.448;7.904;2022-10-29T04:21:51;16.80;;;6.80;;
46391;SDS011;32098;49.448;7.904;2022-10-29T04:24:38;11.43;;;6.40;;
46391;SDS011;32098;49.448;7.904;2022-10-29T04:27:25;15.60;;;6.00;;
46391;SDS011;32098;49.448;7.904;2022-10-29T04:30:12;16.40;;;7.03;;
46391;SDS011;32098;49.448;7.904;2022-10-29T04:32:43;12.00;;;6.13;;
46391;SDS011;32098;49.448;7.904;2022-10-29T04:35:10;18.53;;;7.00;;
46391;SDS011;32098;49.448;7.904;2022-10-29T04:37:36;15.17;;;5.70;;
46391;SDS011;32098;49.448;7.904;2022-10-29T04:40:03;12.17;;;6.60;;
46391;SDS011;32098;49.448;7.904;2022-10-29T04:42:39;14.70;;;6.27;;
46391;SDS011;32098;49.448;7.904;2022-10-29T04:45:06;11.63;;;6.33;;
46391;SDS011;32098;49.448;7.904;2022-10-29T04:47:34;15.53;;;6.07;;
46391;SDS011;32098;49.448;7.904;2022-10-29T04:50:00;13.63;;;6.37;;
46391;SDS011;32098;49.448;7.904;2022-10-29T04:52:27;14.80;;;7.07;;
46391;SDS011;32098;49.448;7.904;2022-10-29T04:54:53;14.53;;;7.60;;
46391;SDS011;32098;49.448;7.904;2022-10-29T04:57:19;15.20;;;6.77;;
46391;SDS011;32098;49.448;7.904;2022-10-29T04:59:46;13.07;;;6.53;;
46391;SDS011;32098;49.448;7.904;2022-10-29T05:02:12;10.80;;;6.33;;
46391;SDS011;32098;49.448;7.904;2022-10-29T05:04:39;14.43;;;6.97;;
46391;SDS011;32098;49.448;7.904;2022-10-29T05:07:05;13.40;;;7.10;;
46391;SDS011;32098;49.448;7.904;2022-10-29T05:09:32;17.40;;;7.30;;
46391;SDS011;32098;49.448;7.904;2022-10-29T05:11:58;12.27;;;6.43;;
46391;SDS011;32098;49.448;7.904;2022-10-29T05:14:25;12.83;;;6.40;;
46391;SDS011;32098;49.448;7.904;2022-10-29T05:16:51;12.57;;;6.00;;
46391;SDS011;32098;49.448;7.904;2022-10-29T05:19:18;17.17;;;7.13;;
46391;SDS011;32098;49.448;7.904;2022-10-29T05:21:44;14.00;;;6.60;;
46391;SDS011;32098;49.448;7.904;2022-10-29T05:24:11;12.37;;;6.10;;
46391;SDS011;32098;49.448;7.904;2022-10-29T05:26:37;13.77;;;6.57;;
46391;SDS011;32098;49.448;7.904;2022-10-29T05:29:04;15.13;;;6.50;;
46391;SDS011;32098;49.448;7.904;2022-10-29T05:31:30;14.07;;;7.30;;
46391;SDS011;32098;49.448;7.904;2022-10-29T05:33:56;14.67;;;7.07;;
46391;SDS011;32098;49.448;7.904;2022-10-29T05:36:23;17.43;;;6.73;;
46391;SDS011;32098;49.448;7.904;2022-10-29T05:38:49;15.30;;;6.87;;
46391;SDS011;32098;49.448;7.904;2022-10-29T05:41:16;14.27;;;6.90;;
46391;SDS011;32098;49.448;7.904;2022-10-29T05:43:42;15.13;;;6.53;;
46391;SDS011;32098;49.448;7.904;2022-10-29T05:46:09;16.10;;;6.50;;
46391;SDS011;32098;49.448;7.904;2022-10-29T05:48:35;13.87;;;7.03;;
46391;SDS011;32098;49.448;7.904;2022-10-29T05:51:02;15.07;;;6.90;;
46391;SDS011;32098;49.448;7.904;2022-10-29T05:53:29;10.87;;;6.13;;
46391;SDS011;32098;49.448;7.904;2022-10-29T05:55:57;17.73;;;7.43;;
46391;SDS011;32098;49.448;7.904;2022-10-29T05:58:24;23.87;;;7.17;;
46391;SDS011;32098;49.448;7.904;2022-10-29T06:00:50;15.67;;;7.30;;
46391;SDS011;32098;49.448;7.904;2022-10-29T06:03:18;15.87;;;8.63;;
46391;SDS011;32098;49.448;7.904;2022-10-29T06:05:46;18.57;;;8.60;;
46391;SDS011;32098;49.448;7.904;2022-10-29T06:08:14;17.73;;;9.23;;
46391;SDS011;32098;49.448;7.904;2022-10-29T06:10:40;17.67;;;9.97;;
46391;SDS011;32098;49.448;7.904;2022-10-29T06:13:17;17.93;;;9.33;;
46391;SDS011;32098;49.448;7.904;2022-10-29T06:15:47;14.80;;;9.03;;
46391;SDS011;32098;49.448;7.904;2022-10-29T06:18:16;18.43;;;9.50;;
46391;SDS011;32098;49.448;7.904;2022-10-29T06:20:43;17.00;;;9.90;;
46391;SDS011;32098;49.448;7.904;2022-10-29T06:23:09;17.87;;;10.47;;
46391;SDS011;32098;49.448;7.904;2022-10-29T06:25:36;16.27;;;8.50;;
46391;SDS011;32098;49.448;7.904;2022-10-29T06:28:04;15.63;;;8.37;;
46391;SDS011;32098;49.448;7.904;2022-10-29T06:30:35;15.20;;;8.63;;
46391;SDS011;32098;49.448;7.904;2022-10-29T06:33:02;16.57;;;8.30;;
46391;SDS011;32098;49.448;7.904;2022-10-29T06:35:29;15.80;;;7.80;;
46391;SDS011;32098;49.448;7.904;2022-10-29T06:37:56;16.43;;;7.80;;
46391;SDS011;32098;49.448;7.904;2022-10-29T06:40:24;15.93;;;7.60;;
46391;SDS011;32098;49.448;7.904;2022-10-29T06:43:00;17.23;;;7.80;;
46391;SDS011;32098;49.448;7.904;2022-10-29T06:45:29;18.03;;;8.67;;
46391;SDS011;32098;49.448;7.904;2022-10-29T06:47:56;12.47;;;8.30;;
46391;SDS011;32098;49.448;7.904;2022-10-29T06:50:24;16.70;;;7.93;;
46391;SDS011;32098;49.448;7.904;2022-10-29T06:55:21;12.98;;;7.70;;
46391;SDS011;32098;49.448;7.904;2022-10-29T06:57:54;14.37;;;7.50;;
46391;SDS011;32098;49.448;7.904;2022-10-29T07:00:31;13.83;;;7.10;;
46391;SDS011;32098;49.448;7.904;2022-10-29T07:02:59;16.67;;;7.90;;
46391;SDS011;32098;49.448;7.904;2022-10-29T07:05:26;14.80;;;7.53;;
46391;SDS011;32098;49.448;7.904;2022-10-29T07:07:54;16.23;;;8.25;;
46391;SDS011;32098;49.448;7.904;2022-10-29T07:10:22;14.57;;;7.83;;
46391;SDS011;32098;49.448;7.904;2022-10-29T07:12:49;13.67;;;8.20;;
46391;SDS011;32098;49.448;7.904;2022-10-29T07:15:16;16.93;;;8.53;;
46391;SDS011;32098;49.448;7.904;2022-10-29T07:17:52;14.87;;;7.87;;
46391;SDS011;32098;49.448;7.904;2022-10-29T07:20:27;13.27;;;7.33;;
46391;SDS011;32098;49.448;7.904;2022-10-29T07:22:55;14.75;;;7.15;;
46391;SDS011;32098;49.448;7.904;2022-10-29T07:25:28;13.80;;;7.15;;
46391;SDS011;32098;49.448;7.904;2022-10-29T07:28:01;14.82;;;6.80;;
46391;SDS011;32098;49.448;7.904;2022-10-29T07:30:29;13.68;;;6.57;;
46391;SDS011;32098;49.448;7.904;2022-10-29T07:32:55;11.38;;;7.03;;
46391;SDS011;32098;49.448;7.904;2022-10-29T07:35:22;13.83;;;6.57;;
46391;SDS011;32098;49.448;7.904;2022-10-29T07:37:48;14.38;;;6.68;;
46391;SDS011;32098;49.448;7.904;2022-10-29T07:40:15;18.15;;;6.28;;
46391;SDS011;32098;49.448;7.904;2022-10-29T07:42:41;13.77;;;5.78;;
46391;SDS011;32098;49.448;7.904;2022-10-29T07:45:08;15.45;;;6.78;;
46391;SDS011;32098;49.448;7.904;2022-10-29T07:47:35;13.32;;;6.43;;
46391;SDS011;32098;49.448;7.904;2022-10-29T07:50:01;10.02;;;6.40;;
46391;SDS011;32098;49.448;7.904;2022-10-29T07:52:28;13.07;;;6.32;;
46391;SDS011;32098;49.448;7.904;2022-10-29T07:54:54;17.08;;;6.50;;
46391;SDS011;32098;49.448;7.904;2022-10-29T07:57:21;16.08;;;6.90;;
46391;SDS011;32098;49.448;7.904;2022-10-29T07:59:47;13.48;;;6.60;;
46391;SDS011;32098;49.448;7.904;2022-10-29T08:02:15;16.23;;;7.47;;
46391;SDS011;32098;49.448;7.904;2022-10-29T08:04:41;11.88;;;6.68;;
46391;SDS011;32098;49.448;7.904;2022-10-29T08:07:08;17.23;;;6.88;;
46391;SDS011;32098;49.448;7.904;2022-10-29T08:09:34;13.43;;;7.70;;
46391;SDS011;32098;49.448;7.904;2022-10-29T08:12:01;15.10;;;7.55;;
46391;SDS011;32098;49.448;7.904;2022-10-29T08:14:30;16.95;;;8.55;;
46391;SDS011;32098;49.448;7.904;2022-10-29T08:16:56;15.43;;;8.18;;
46391;SDS011;32098;49.448;7.904;2022-10-29T08:19:23;17.25;;;8.00;;
46391;SDS011;32098;49.448;7.904;2022-10-29T08:21:49;15.95;;;7.72;;
46391;SDS011;32098;49.448;7.904;2022-10-29T08:24:15;11.10;;;7.93;;
46391;SDS011;32098;49.448;7.904;2022-10-29T08:26:42;13.25;;;8.20;;
46391;SDS011;32098;49.448;7.904;2022-10-29T08:29:08;16.50;;;8.57;;
46391;SDS011;32098;49.448;7.904;2022-10-29T08:31:35;12.05;;;8.10;;
46391;SDS011;32098;49.448;7.904;2022-10-29T08:34:01;15.05;;;8.43;;
46391;SDS011;32098;49.448;7.904;2022-10-29T08:36:35;16.50;;;7.88;;
46391;SDS011;32098;49.448;7.904;2022-10-29T08:39:01;13.55;;;7.40;;
46391;SDS011;32098;49.448;7.904;2022-10-29T08:41:43;16.50;;;7.88;;
46391;SDS011;32098;49.448;7.904;2022-10-29T08:49:13;13.23;;;7.40;;
46391;SDS011;32098;49.448;7.904;2022-10-29T08:51:46;14.63;;;7.40;;
46391;SDS011;32098;49.448;7.904;2022-10-29T08:54:19;11.90;;;6.78;;
46391;SDS011;32098;49.448;7.904;2022-10-29T08:56:57;14.88;;;7.15;;
46391;SDS011;32098;49.448;7.904;2022-10-29T08:59:27;13.80;;;6.63;;
46391;SDS011;32098;49.448;7.904;2022-10-29T09:02:00;10.50;;;6.13;;
46391;SDS011;32098;49.448;7.904;2022-10-29T09:04:34;14.30;;;6.22;;
46391;SDS011;32098;49.448;7.904;2022-10-29T09:09:41;14.95;;;7.43;;
46391;SDS011;32098;49.448;7.904;2022-10-29T09:22:00;11.13;;;6.45;;
46391;SDS011;32098;49.448;7.904;2022-10-29T09:27:23;10.23;;;5.32;;
46391;SDS011;32098;49.448;7.904;2022-10-29T09:30:19;10.68;;;5.00;;
46391;SDS011;32098;49.448;7.904;2022-10-29T09:32:59;11.27;;;5.40;;
46391;SDS011;32098;49.448;7.904;2022-10-29T09:38:11;10.45;;;4.82;;
46391;SDS011;32098;49.448;7.904;2022-10-29T09:40:42;14.60;;;5.75;;
46391;SDS011;32098;49.448;7.904;2022-10-29T09:43:31;12.13;;;5.43;;
46391;SDS011;32098;49.448;7.904;2022-10-29T09:49:00;10.18;;;4.82;;
46391;SDS011;32098;49.448;7.904;2022-10-29T09:51:32;10.98;;;4.50;;
46391;SDS011;32098;49.448;7.904;2022-10-29T09:54:02;14.80;;;5.00;;
46391;SDS011;32098;49.448;7.904;2022-10-29T09:56:29;11.77;;;5.00;;
46391;SDS011;32098;49.448;7.904;2022-10-29T09:58:58;10.10;;;4.35;;
46391;SDS011;32098;49.448;7.904;2022-10-29T10:01:37;8.63;;;4.07;;
46391;SDS011;32098;49.448;7.904;2022-10-29T10:04:07;11.82;;;3.97;;
46391;SDS011;32098;49.448;7.904;2022-10-29T10:09:27;15.00;;;4.50;;
46391;SDS011;32098;49.448;7.904;2022-10-29T10:11:53;9.88;;;4.07;;
46391;SDS011;32098;49.448;7.904;2022-10-29T10:14:24;9.18;;;3.47;;
46391;SDS011;32098;49.448;7.904;2022-10-29T10:16:59;8.65;;;3.70;;
46391;SDS011;32098;49.448;7.904;2022-10-29T10:19:27;8.43;;;3.58;;
46391;SDS011;32098;49.448;7.904;2022-10-29T10:21:58;11.88;;;3.72;;
46391;SDS011;32098;49.448;7.904;2022-10-29T10:24:36;7.35;;;3.78;;
46391;SDS011;32098;49.448;7.904;2022-10-29T10:27:22;6.75;;;3.42;;
46391;SDS011;32098;49.448;7.904;2022-10-29T10:32:30;10.05;;;4.10;;
46391;SDS011;32098;49.448;7.904;2022-10-29T10:34:57;8.00;;;4.22;;
46391;SDS011;32098;49.448;7.904;2022-10-29T10:37:23;10.60;;;4.45;;
46391;SDS011;32098;49.448;7.904;2022-10-29T10:39:51;9.93;;;4.28;;
46391;SDS011;32098;49.448;7.904;2022-10-29T10:42:29;10.70;;;4.10;;
46391;SDS011;32098;49.448;7.904;2022-10-29T10:45:00;12.93;;;4.25;;
46391;SDS011;32098;49.448;7.904;2022-10-29T10:47:48;12.88;;;4.07;;
46391;SDS011;32098;49.448;7.904;2022-10-29T10:50:20;6.10;;;3.50;;
46391;SDS011;32098;49.448;7.904;2022-10-29T10:52:56;10.73;;;3.22;;
46391;SDS011;32098;49.448;7.904;2022-10-29T10:57:55;6.18;;;3.20;;
46391;SDS011;32098;49.448;7.904;2022-10-29T11:00:33;6.65;;;3.20;;
46391;SDS011;32098;49.448;7.904;2022-10-29T11:05:38;7.28;;;2.95;;
46391;SDS011;32098;49.448;7.904;2022-10-29T11:08:17;5.32;;;3.00;;
46391;SDS011;32098;49.448;7.904;2022-10-29T11:10:51;7.10;;;2.90;;
46391;SDS011;32098;49.448;7.904;2022-10-29T11:13:21;7.03;;;2.92;;
46391;SDS011;32098;49.448;7.904;2022-10-29T11:15:53;4.10;;;2.30;;
46391;SDS011;32098;49.448;7.904;2022-10-29T11:18:40;6.57;;;2.90;;
46391;SDS011;32098;49.448;7.904;2022-10-29T11:21:20;7.72;;;3.17;;
46391;SDS011;32098;49.448;7.904;2022-10-29T11:26:54;8.20;;;3.10;;
46391;SDS011;32098;49.448;7.904;2022-10-29T11:32:22;4.57;;;2.67;;
46391;SDS011;32098;49.448;7.904;2022-10-29T11:34:58;6.72;;;3.67;;
46391;SDS011;32098;49.448;7.904;2022-10-29T11:40:12;7.72;;;3.10;;
46391;SDS011;32098;49.448;7.904;2022-10-29T11:42:43;6.82;;;3.45;;
46391;SDS011;32098;49.448;7.904;2022-10-29T11:45:10;8.75;;;3.22;;
46391;SDS011;32098;49.448;7.904;2022-10-29T11:50:42;5.43;;;3.08;;
46391;SDS011;32098;49.448;7.904;2022-10-29T11:56:13;12.52;;;3.22;;
46391;SDS011;32098;49.448;7.904;2022-10-29T11:58:51;8.88;;;3.22;;
46391;SDS011;32098;49.448;7.904;2022-10-29T12:01:29;10.52;;;3.30;;
46391;SDS011;32098;49.448;7.904;2022-10-29T12:07:03;12.18;;;3.38;;
46391;SDS011;32098;49.448;7.904;2022-10-29T12:18:16;6.80;;;2.72;;
46391;SDS011;32098;49.448;7.904;2022-10-29T12:26:31;9.18;;;2.85;;
46391;SDS011;32098;49.448;7.904;2022-10-29T12:29:03;10.20;;;3.30;;
46391;SDS011;32098;49.448;7.904;2022-10-29T12:31:55;9.90;;;3.78;;
46391;SDS011;32098;49.448;7.904;2022-10-29T12:34:35;4.88;;;3.10;;
46391;SDS011;32098;49.448;7.904;2022-10-29T12:37:12;10.30;;;3.50;;
46391;SDS011;32098;49.448;7.904;2022-10-29T12:40:00;7.97;;;3.50;;
46391;SDS011;32098;49.448;7.904;2022-10-29T12:42:34;7.25;;;3.60;;
46391;SDS011;32098;49.448;7.904;2022-10-29T12:47:51;8.50;;;3.30;;
46391;SDS011;32098;49.448;7.904;2022-10-29T12:55:52;8.73;;;3.05;;
46391;SDS011;32098;49.448;7.904;2022-10-29T13:04:26;8.35;;;3.42;;
46391;SDS011;32098;49.448;7.904;2022-10-29T13:06:58;7.45;;;3.47;;
46391;SDS011;32098;49.448;7.904;2022-10-29T13:12:05;6.85;;;2.80;;
46391;SDS011;32098;49.448;7.904;2022-10-29T13:17:32;6.38;;;3.00;;
46391;SDS011;32098;49.448;7.904;2022-10-29T13:20:20;8.73;;;2.58;;
46391;SDS011;32098;49.448;7.904;2022-10-29T13:30:37;9.68;;;2.50;;
46391;SDS011;32098;49.448;7.904;2022-10-29T13:35:57;9.40;;;2.70;;
46391;SDS011;32098;49.448;7.904;2022-10-29T13:46:50;8.20;;;4.88;;
46391;SDS011;32098;49.448;7.904;2022-10-29T13:49:37;9.50;;;3.58;;
46391;SDS011;32098;49.448;7.904;2022-10-29T13:52:19;9.35;;;3.22;;
46391;SDS011;32098;49.448;7.904;2022-10-29T13:54:57;7.90;;;3.40;;
46391;SDS011;32098;49.448;7.904;2022-10-29T13:57:31;10.43;;;3.33;;
46391;SDS011;32098;49.448;7.904;2022-10-29T14:00:16;6.53;;;2.90;;
46391;SDS011;32098;49.448;7.904;2022-10-29T14:02:59;7.60;;;2.80;;
46391;SDS011;32098;49.448;7.904;2022-10-29T14:08:00;7.45;;;3.20;;
46391;SDS011;32098;49.448;7.904;2022-10-29T14:13:07;8.38;;;2.55;;
46391;SDS011;32098;49.448;7.904;2022-10-29T14:16:00;8.60;;;3.45;;
46391;SDS011;32098;49.448;7.904;2022-10-29T14:18:29;8.48;;;3.75;;
46391;SDS011;32098;49.448;7.904;2022-10-29T14:21:01;13.35;;;4.18;;
46391;SDS011;32098;49.448;7.904;2022-10-29T14:23:29;12.32;;;3.53;;
46391;SDS011;32098;49.448;7.904;2022-10-29T14:25:58;9.52;;;2.90;;
46391;SDS011;32098;49.448;7.904;2022-10-29T14:28:26;11.73;;;3.17;;
46391;SDS011;32098;49.448;7.904;2022-10-29T14:31:06;10.43;;;3.20;;
46391;SDS011;32098;49.448;7.904;2022-10-29T14:33:39;8.23;;;3.30;;
46391;SDS011;32098;49.448;7.904;2022-10-29T14:38:45;12.82;;;2.95;;
46391;SDS011;32098;49.448;7.904;2022-10-29T14:41:16;6.60;;;3.28;;
46391;SDS011;32098;49.448;7.904;2022-10-29T14:43:43;5.65;;;2.35;;
46391;SDS011;32098;49.448;7.904;2022-10-29T14:46:36;8.25;;;3.05;;
46391;SDS011;32098;49.448;7.904;2022-10-29T14:49:20;7.00;;;3.22;;
46391;SDS011;32098;49.448;7.904;2022-10-29T14:52:32;5.05;;;2.95;;
46391;SDS011;32098;49.448;7.904;2022-10-29T14:54:44;7.53;;;3.40;;
46391;SDS011;32098;49.448;7.904;2022-10-29T14:57:14;7.93;;;2.97;;
46391;SDS011;32098;49.448;7.904;2022-10-29T14:59:44;8.40;;;3.47;;
46391;SDS011;32098;49.448;7.904;2022-10-29T15:02:13;5.35;;;2.80;;
46391;SDS011;32098;49.448;7.904;2022-10-29T15:05:01;9.10;;;3.47;;
46391;SDS011;32098;49.448;7.904;2022-10-29T15:07:33;13.48;;;3.47;;
46391;SDS011;32098;49.448;7.904;2022-10-29T15:12:34;10.38;;;3.42;;
46391;SDS011;32098;49.448;7.904;2022-10-29T15:15:06;8.77;;;3.13;;
46391;SDS011;32098;49.448;7.904;2022-10-29T15:20:34;9.05;;;3.42;;
46391;SDS011;32098;49.448;7.904;2022-10-29T15:25:44;7.50;;;3.40;;
46391;SDS011;32098;49.448;7.904;2022-10-29T15:28:14;6.32;;;2.92;;
46391;SDS011;32098;49.448;7.904;2022-10-29T15:30:49;10.15;;;3.72;;
46391;SDS011;32098;49.448;7.904;2022-10-29T15:33:16;11.73;;;3.58;;
46391;SDS011;32098;49.448;7.904;2022-10-29T15:35:51;12.25;;;4.68;;
46391;SDS011;32098;49.448;7.904;2022-10-29T15:41:28;11.15;;;5.90;;
46391;SDS011;32098;49.448;7.904;2022-10-29T15:46:20;10.93;;;4.32;;
46391;SDS011;32098;49.448;7.904;2022-10-29T15:48:48;9.50;;;4.40;;
46391;SDS011;32098;49.448;7.904;2022-10-29T15:51:14;14.98;;;6.88;;
46391;SDS011;32098;49.448;7.904;2022-10-29T15:53:41;20.48;;;12.13;;
46391;SDS011;32098;49.448;7.904;2022-10-29T15:56:11;14.10;;;6.75;;
46391;SDS011;32098;49.448;7.904;2022-10-29T15:58:38;11.20;;;4.63;;
46391;SDS011;32098;49.448;7.904;2022-10-29T16:01:06;11.20;;;5.18;;
46391;SDS011;32098;49.448;7.904;2022-10-29T16:03:34;13.60;;;5.03;;
46391;SDS011;32098;49.448;7.904;2022-10-29T16:06:05;13.07;;;4.57;;
46391;SDS011;32098;49.448;7.904;2022-10-29T16:08:38;11.02;;;4.82;;
46391;SDS011;32098;49.448;7.904;2022-10-29T16:11:09;9.65;;;4.43;;
46391;SDS011;32098;49.448;7.904;2022-10-29T16:13:38;9.70;;;4.28;;
46391;SDS011;32098;49.448;7.904;2022-10-29T16:16:05;10.30;;;4.05;;
46391;SDS011;32098;49.448;7.904;2022-10-29T16:18:36;12.60;;;3.83;;
46391;SDS011;32098;49.448;7.904;2022-10-29T16:21:03;9.23;;;4.30;;
46391;SDS011;32098;49.448;7.904;2022-10-29T16:23:35;8.50;;;4.00;;
46391;SDS011;32098;49.448;7.904;2022-10-29T16:26:03;10.25;;;4.38;;
46391;SDS011;32098;49.448;7.904;2022-10-29T16:28:30;10.30;;;5.20;;
46391;SDS011;32098;49.448;7.904;2022-10-29T16:30:57;9.90;;;4.25;;
46391;SDS011;32098;49.448;7.904;2022-10-29T16:33:25;11.35;;;4.43;;
46391;SDS011;32098;49.448;7.904;2022-10-29T16:35:52;15.07;;;4.75;;
46391;SDS011;32098;49.448;7.904;2022-10-29T16:38:18;12.18;;;4.70;;
46391;SDS011;32098;49.448;7.904;2022-10-29T16:40:45;11.02;;;4.65;;
46391;SDS011;32098;49.448;7.904;2022-10-29T16:43:11;12.38;;;4.50;;
46391;SDS011;32098;49.448;7.904;2022-10-29T16:45:38;12.10;;;4.43;;
46391;SDS011;32098;49.448;7.904;2022-10-29T16:48:04;11.48;;;4.90;;
46391;SDS011;32098;49.448;7.904;2022-10-29T16:50:32;10.23;;;4.32;;
46391;SDS011;32098;49.448;7.904;2022-10-29T16:53:00;14.57;;;5.35;;
46391;SDS011;32098;49.448;7.904;2022-10-29T16:55:38;9.38;;;4.15;;
46391;SDS011;32098;49.448;7.904;2022-10-29T16:58:06;9.30;;;4.85;;
46391;SDS011;32098;49.448;7.904;2022-10-29T17:00:36;10.85;;;4.60;;
46391;SDS011;32098;49.448;7.904;2022-10-29T17:03:03;10.43;;;4.82;;
46391;SDS011;32098;49.448;7.904;2022-10-29T17:05:37;9.63;;;4.82;;
46391;SDS011;32098;49.448;7.904;2022-10-29T17:08:08;9.55;;;5.20;;
46391;SDS011;32098;49.448;7.904;2022-10-29T17:10:35;9.77;;;4.90;;
46391;SDS011;32098;49.448;7.904;2022-10-29T17:13:02;9.30;;;5.13;;
46391;SDS011;32098;49.448;7.904;2022-10-29T17:15:29;14.50;;;5.82;;
46391;SDS011;32098;49.448;7.904;2022-10-29T17:17:55;17.42;;;7.28;;
46391;SDS011;32098;49.448;7.904;2022-10-29T17:20:23;15.45;;;7.13;;
46391;SDS011;32098;49.448;7.904;2022-10-29T17:22:51;16.42;;;7.47;;
46391;SDS011;32098;49.448;7.904;2022-10-29T17:25:18;16.40;;;7.13;;
46391;SDS011;32098;49.448;7.904;2022-10-29T17:27:44;10.65;;;5.40;;
46391;SDS011;32098;49.448;7.904;2022-10-29T17:30:11;12.70;;;5.30;;
46391;SDS011;32098;49.448;7.904;2022-10-29T17:32:37;12.48;;;5.07;;
46391;SDS011;32098;49.448;7.904;2022-10-29T17:35:04;13.25;;;5.85;;